Airfield :







YOU CAN JOIN US ON...

 
LOGIN :

Register | Disclaimer

   EN    FR    IT 

 









Legend :    VFR   Marginal VFR   IFR   Intensive IFR   Very Intensive IFR
Visi :
Ceiling :
>= 8 km
>= 3000ft
5 to 8 km
1000 to 3000 ft
1500m to 5 km
500 to 1000 ft
800 to 1500m
200 to 500 ft
< 800m
< 200 ft
Symbols :   Thunderstorms  Fog  Heavy snow  Heavy precipitations  Wind > 20 kt







- Airport Elevation : 171 ft
- IATA code : KEF


BIKF - Keflavik International

CURRENT METAR :
  • 210830Z 13027KT 6000 -DZRA BR BKN005 OVC010 12/11 Q1000

EXPIRED METARs :
  • 210800Z 13027KT 3000 -DZRA BR BKN006 OVC014 11/11 Q0999
  • 210730Z 13025KT 3000 -DZRA BR BKN005 OVC010 12/11 Q0999
  • 210700Z 13024KT 4000 -DZRA BR BKN005 OVC010 11/11 Q0999
  • 210630Z 13024KT 2000 DZRA BR BKN005 OVC012 11/11 Q0998
  • 210600Z 13022KT 3000 DZRA BR BKN007 OVC013 11/11 Q0999

TAF TAF BIKF
Valid from the 21 at 09:00 until the 22 at 09:00 UTC


210755Z 2109/2209 12023G33KT 5000 -DZRA BR BKN005 OVC010 TX12/2201Z TN10/2112Z
TEMPO 2109/2113 1500 DZ BR OVC003
BECMG 2112/2114 9999 -RA SCT015 BKN025
TEMPO 2114/2209 5000 RADZ BR BKN008 OVC012
No reported NOTAMs for that airfield.



MET'MAP, your aeronautical weather chart ! - Copyright ORBIFLY December 2007 - Disclaimer

ORBIFLY MET'MAP TEAM :

Programming & Development : Alexandra Zaïnal
Concept & Development : Baudouin d'Aumeries
Co-Development & Prog : Marc-Olivier Méhu
Technical & hardware support : Manuel Goepfert

Contact : metmap@orbifly.com




SOURCES & CREDITS :

   NOAA